createdAt,value
2019-03-27T00:01:47.255Z,66.59
2019-03-27T00:04:13.399Z,66.89
2019-03-27T00:06:39.537Z,67.14
2019-03-27T00:09:05.809Z,66.95
2019-03-27T00:11:31.953Z,66.69
2019-03-27T00:13:58.188Z,66.82
2019-03-27T00:16:24.299Z,66.56
2019-03-27T00:18:50.324Z,65.74
2019-03-27T00:21:16.467Z,65.89
2019-03-27T00:23:46.552Z,65.62
2019-03-27T00:26:12.600Z,65.85
2019-03-27T00:28:38.726Z,65.74
2019-03-27T00:31:04.875Z,65.73
2019-03-27T00:33:30.895Z,65.32
2019-03-27T00:35:57.037Z,65.81
2019-03-27T00:38:23.159Z,66.02
2019-03-27T00:40:50.361Z,66.18
2019-03-27T00:43:16.461Z,66.36
2019-03-27T00:45:42.536Z,66.01
2019-03-27T00:48:08.664Z,66.25
2019-03-27T00:50:34.903Z,66.36
2019-03-27T00:53:01.060Z,65.74
2019-03-27T00:55:27.080Z,66.64
2019-03-27T00:57:53.197Z,66.63
2019-03-27T01:00:25.761Z,66.77
2019-03-27T01:02:51.911Z,66.91
2019-03-27T01:05:18.060Z,67.13
2019-03-27T01:07:44.294Z,66.90
2019-03-27T01:10:10.539Z,67.45
2019-03-27T01:12:36.741Z,67.47
2019-03-27T01:15:05.497Z,67.26
2019-03-27T01:17:32.957Z,67.55
2019-03-27T01:19:59.206Z,67.26
2019-03-27T01:22:25.234Z,67.21
2019-03-27T01:24:51.373Z,67.27
2019-03-27T01:27:17.503Z,67.35
2019-03-27T01:29:43.633Z,67.60
2019-03-27T01:32:09.708Z,68.00
2019-03-27T01:34:35.830Z,67.61
2019-03-27T01:37:01.961Z,67.50
2019-03-27T01:39:28.088Z,66.99
2019-03-27T01:41:54.206Z,66.59
2019-03-27T01:44:20.320Z,66.81
2019-03-27T01:46:46.382Z,66.90
2019-03-27T01:49:12.526Z,66.76
2019-03-27T01:51:38.671Z,66.77
2019-03-27T01:54:04.803Z,66.89
2019-03-27T01:56:31.025Z,67.09
2019-03-27T01:58:57.145Z,67.03
2019-03-27T02:01:23.275Z,66.11
2019-03-27T02:03:49.449Z,65.19
2019-03-27T02:06:15.586Z,65.16
2019-03-27T02:08:41.741Z,65.56
2019-03-27T02:11:10.742Z,64.64
2019-03-27T02:13:36.933Z,64.77
2019-03-27T02:16:06.981Z,64.24
2019-03-27T02:18:31.114Z,64.02
2019-03-27T02:20:57.273Z,64.04
2019-03-27T02:23:23.417Z,64.10
2019-03-27T02:25:49.563Z,64.26
2019-03-27T02:28:15.789Z,63.73
2019-03-27T02:30:41.913Z,63.76
2019-03-27T02:33:08.061Z,63.69
2019-03-27T02:35:34.229Z,63.08
2019-03-27T02:38:00.368Z,63.35
2019-03-27T02:40:26.411Z,63.41
2019-03-27T02:42:52.579Z,62.55
2019-03-27T02:45:18.714Z,63.09
2019-03-27T02:47:44.740Z,63.05
2019-03-27T02:50:10.883Z,62.98
2019-03-27T02:52:37.135Z,63.36
2019-03-27T02:55:07.345Z,63.58
2019-03-27T02:57:33.873Z,63.20
2019-03-27T03:00:00.045Z,62.83
2019-03-27T03:02:26.188Z,63.25
2019-03-27T03:04:52.316Z,63.29
2019-03-27T03:07:18.479Z,63.13
2019-03-27T03:09:44.529Z,63.10
2019-03-27T03:12:10.651Z,62.97
2019-03-27T03:14:36.824Z,63.32
2019-03-27T03:17:02.937Z,62.99
2019-03-27T03:19:29.131Z,63.14
2019-03-27T03:21:55.281Z,62.56
2019-03-27T03:24:21.387Z,62.99
2019-03-27T03:26:51.014Z,62.92
2019-03-27T03:29:15.614Z,62.20
2019-03-27T03:31:41.796Z,62.06
2019-03-27T03:34:07.821Z,62.31
2019-03-27T03:36:33.941Z,62.12
2019-03-27T03:39:00.058Z,61.68
2019-03-27T03:41:26.189Z,61.76
2019-03-27T03:43:52.418Z,62.11
2019-03-27T03:46:18.641Z,62.10
2019-03-27T03:48:44.771Z,61.88
2019-03-27T03:51:10.985Z,61.82
2019-03-27T03:53:37.324Z,61.98
2019-03-27T03:56:03.438Z,62.06
2019-03-27T03:58:31.056Z,62.07
2019-03-27T04:00:58.974Z,61.87
2019-03-27T04:03:26.699Z,61.78
2019-03-27T04:05:52.888Z,61.78
2019-03-27T04:08:18.962Z,61.78
2019-03-27T04:10:45.279Z,61.54
2019-03-27T04:13:11.488Z,61.69
2019-03-27T04:15:37.766Z,61.84
2019-03-27T04:18:04.032Z,61.93
2019-03-27T04:20:30.164Z,62.31
2019-03-27T04:22:58.022Z,62.39
2019-03-27T04:25:24.144Z,62.56
2019-03-27T04:27:50.103Z,62.53
2019-03-27T04:30:16.248Z,62.24
2019-03-27T04:32:42.391Z,62.18
2019-03-27T04:35:08.516Z,61.88
2019-03-27T04:37:34.671Z,61.86
2019-03-27T04:40:00.710Z,61.82
2019-03-27T04:42:26.849Z,61.94
2019-03-27T04:44:53.019Z,61.86
2019-03-27T04:47:31.574Z,62.14
2019-03-27T04:49:47.161Z,62.19
2019-03-27T04:52:13.442Z,62.13
2019-03-27T04:54:39.416Z,62.04
2019-03-27T04:57:05.532Z,62.00
2019-03-27T04:59:31.869Z,61.98
2019-03-27T05:01:58.071Z,61.96
2019-03-27T05:04:24.680Z,62.13
2019-03-27T05:06:50.938Z,62.23
2019-03-27T05:09:17.187Z,62.59
2019-03-27T05:11:43.507Z,62.77
2019-03-27T05:14:09.771Z,62.76
2019-03-27T05:16:39.067Z,62.68
2019-03-27T05:19:05.015Z,62.76
2019-03-27T05:21:31.245Z,62.71
2019-03-27T05:23:57.326Z,62.63
2019-03-27T05:26:23.447Z,62.91
2019-03-27T05:28:49.480Z,63.13
2019-03-27T05:31:17.425Z,63.24
2019-03-27T05:33:43.581Z,63.19
2019-03-27T05:36:09.644Z,63.16
2019-03-27T05:38:35.759Z,63.38
2019-03-27T05:41:01.927Z,63.54
2019-03-27T05:43:28.051Z,63.49
2019-03-27T05:45:54.199Z,63.46
2019-03-27T05:48:21.623Z,63.38
2019-03-27T05:50:47.878Z,63.56
2019-03-27T05:53:14.026Z,63.63
2019-03-27T05:55:40.288Z,63.53
2019-03-27T05:58:06.387Z,63.46
2019-03-27T06:00:34.108Z,63.63
2019-03-27T06:03:00.260Z,63.87
2019-03-27T06:05:27.567Z,64.53
2019-03-27T06:07:56.664Z,63.84
2019-03-27T06:10:22.912Z,63.87
2019-03-27T06:12:49.160Z,64.44
2019-03-27T06:15:15.279Z,64.55
2019-03-27T06:17:41.429Z,64.85
2019-03-27T06:20:07.658Z,64.52
2019-03-27T06:22:33.988Z,64.74
2019-03-27T06:25:00.272Z,64.23
2019-03-27T06:27:27.599Z,64.34
2019-03-27T06:29:55.624Z,64.45
2019-03-27T06:32:21.645Z,64.76
2019-03-27T06:34:47.806Z,65.10
2019-03-27T06:37:14.966Z,64.64
2019-03-27T06:39:41.117Z,64.62
2019-03-27T06:42:07.232Z,64.52
2019-03-27T06:44:33.489Z,64.38
2019-03-27T06:46:59.691Z,64.38
2019-03-27T06:49:25.917Z,63.86
2019-03-27T06:51:52.234Z,64.53
2019-03-27T06:54:18.678Z,64.35
2019-03-27T06:56:44.909Z,64.22
2019-03-27T06:59:11.039Z,64.69
2019-03-27T07:01:38.387Z,63.95
2019-03-27T07:04:10.388Z,63.96
2019-03-27T07:06:32.830Z,63.79
2019-03-27T07:08:58.989Z,63.92
2019-03-27T07:11:25.095Z,63.42
2019-03-27T07:13:51.244Z,63.16
2019-03-27T07:16:19.837Z,62.38
2019-03-27T07:18:45.977Z,61.95
2019-03-27T07:21:12.079Z,62.04
2019-03-27T07:23:38.249Z,62.30
2019-03-27T07:26:04.419Z,61.93
2019-03-27T07:28:30.552Z,62.58
2019-03-27T07:30:56.695Z,63.18
2019-03-27T07:33:22.830Z,62.68
2019-03-27T07:35:48.946Z,62.21
2019-03-27T07:38:15.082Z,62.54
2019-03-27T07:40:41.127Z,62.23
2019-03-27T07:43:07.285Z,61.97
2019-03-27T07:45:33.428Z,61.49
2019-03-27T07:47:59.453Z,61.67
2019-03-27T07:50:25.587Z,61.87
2019-03-27T07:52:51.705Z,61.04
2019-03-27T07:55:19.557Z,61.04
2019-03-27T07:57:45.915Z,60.97
2019-03-27T08:00:15.456Z,61.27
2019-03-27T08:02:43.722Z,61.49
2019-03-27T08:05:10.021Z,60.38
2019-03-27T08:07:36.048Z,60.12
2019-03-27T08:10:04.366Z,60.69
2019-03-27T08:12:30.388Z,60.13
2019-03-27T08:14:56.409Z,60.01
2019-03-27T08:17:22.741Z,60.73
2019-03-27T08:19:48.849Z,58.95
2019-03-27T08:22:17.871Z,59.33
2019-03-27T08:24:44.010Z,59.07
2019-03-27T08:27:10.150Z,58.50
2019-03-27T08:29:36.308Z,58.82
2019-03-27T08:32:02.440Z,57.53
2019-03-27T08:34:28.676Z,57.67
2019-03-27T08:36:54.826Z,55.80
2019-03-27T08:39:20.960Z,55.69
2019-03-27T08:41:47.087Z,56.08
2019-03-27T08:44:13.220Z,55.30
2019-03-27T08:46:39.482Z,55.75
2019-03-27T08:49:05.608Z,55.31
2019-03-27T08:51:31.750Z,54.81
2019-03-27T08:53:57.884Z,53.81
2019-03-27T08:56:23.903Z,54.46
2019-03-27T08:58:50.070Z,54.61
2019-03-27T09:01:16.199Z,52.69
2019-03-27T09:03:42.311Z,53.04
2019-03-27T09:06:08.446Z,52.82
2019-03-27T09:08:34.584Z,53.94
2019-03-27T09:11:00.714Z,54.29
2019-03-27T09:13:26.884Z,55.18
2019-03-27T09:15:53.060Z,53.35
2019-03-27T09:18:19.191Z,54.70
2019-03-27T09:20:45.343Z,51.95
2019-03-27T09:23:11.459Z,52.78
2019-03-27T09:25:37.599Z,52.22
2019-03-27T09:28:03.734Z,51.86
2019-03-27T09:30:29.890Z,51.95
2019-03-27T09:32:56.053Z,52.64
2019-03-27T09:35:22.208Z,51.39
2019-03-27T09:37:48.380Z,53.10
2019-03-27T09:40:14.718Z,52.81
2019-03-27T09:42:40.978Z,52.35
2019-03-27T09:45:08.075Z,51.02
2019-03-27T09:47:34.847Z,50.87
2019-03-27T09:50:01.068Z,49.89
2019-03-27T09:52:27.254Z,49.93
2019-03-27T09:54:53.394Z,50.29
2019-03-27T09:57:19.522Z,48.20
2019-03-27T09:59:45.708Z,48.54
2019-03-27T10:02:11.980Z,48.66
2019-03-27T10:04:38.306Z,48.50
2019-03-27T10:07:04.432Z,47.78
2019-03-27T10:09:30.581Z,49.74
2019-03-27T10:11:56.829Z,48.46
2019-03-27T10:14:22.860Z,47.80
2019-03-27T10:16:48.994Z,47.38
2019-03-27T10:19:15.166Z,48.09
2019-03-27T10:21:42.933Z,46.10
2019-03-27T10:24:09.068Z,45.51
2019-03-27T10:26:35.300Z,45.25
2019-03-27T10:29:01.436Z,45.75
2019-03-27T10:31:27.577Z,45.36
2019-03-27T10:34:06.226Z,45.74
2019-03-27T10:36:32.380Z,46.22
2019-03-27T10:38:58.611Z,45.81
2019-03-27T10:41:24.751Z,46.28
2019-03-27T10:43:51.045Z,45.48
2019-03-27T10:46:17.181Z,41.87
2019-03-27T10:48:52.612Z,42.50
2019-03-27T10:51:11.350Z,42.59
2019-03-27T10:53:37.492Z,43.99
2019-03-27T10:56:03.920Z,44.54
2019-03-27T10:58:30.180Z,44.87
2019-03-27T11:00:56.403Z,45.44
2019-03-27T11:03:22.629Z,45.02
2019-03-27T11:05:52.047Z,44.47
2019-03-27T11:08:18.188Z,44.53
2019-03-27T11:10:44.412Z,44.81
2019-03-27T11:13:10.552Z,44.91
2019-03-27T11:15:36.684Z,44.35
2019-03-27T11:18:02.850Z,44.40
2019-03-27T11:20:31.146Z,44.23
2019-03-27T11:22:57.071Z,44.11
2019-03-27T11:25:23.213Z,42.84
2019-03-27T11:27:50.471Z,44.17
2019-03-27T11:30:18.868Z,41.90
2019-03-27T11:32:44.885Z,43.28
2019-03-27T11:35:11.107Z,43.40
2019-03-27T11:37:37.239Z,44.04
2019-03-27T11:40:04.617Z,42.58
2019-03-27T11:42:30.656Z,40.55
2019-03-27T11:44:56.785Z,37.59
2019-03-27T11:47:22.992Z,39.64
2019-03-27T11:49:49.115Z,40.71
2019-03-27T11:52:15.238Z,41.73
2019-03-27T11:54:41.391Z,41.98
2019-03-27T11:57:07.506Z,41.06
2019-03-27T11:59:33.753Z,38.22
2019-03-27T12:01:59.931Z,37.58
2019-03-27T12:04:26.084Z,34.85
2019-03-27T12:06:52.377Z,34.30
2019-03-27T12:09:18.526Z,34.86
2019-03-27T12:11:44.844Z,34.39
2019-03-27T12:14:12.448Z,35.76
2019-03-27T12:16:38.664Z,34.03
2019-03-27T12:19:04.786Z,33.82
2019-03-27T12:21:30.933Z,35.23
2019-03-27T12:23:57.091Z,36.28
2019-03-27T12:26:23.245Z,36.89
2019-03-27T12:28:49.397Z,35.49
2019-03-27T12:31:15.554Z,36.85
2019-03-27T12:33:41.742Z,37.62
2019-03-27T12:36:07.981Z,35.57
2019-03-27T12:38:34.133Z,36.10
2019-03-27T12:41:00.298Z,36.98
2019-03-27T12:43:26.460Z,36.90
2019-03-27T12:45:52.660Z,37.90
2019-03-27T12:48:19.404Z,39.92
2019-03-27T12:50:45.699Z,38.95
2019-03-27T12:53:18.089Z,39.32
2019-03-27T12:55:41.948Z,38.83
2019-03-27T12:58:11.518Z,38.91
2019-03-27T13:00:36.239Z,39.05
2019-03-27T13:03:03.206Z,37.79
2019-03-27T13:05:32.791Z,37.55
2019-03-27T13:07:58.915Z,37.94
2019-03-27T13:10:25.275Z,37.00
2019-03-27T13:12:51.414Z,38.09
2019-03-27T13:15:18.188Z,38.05
2019-03-27T13:17:44.450Z,35.34
2019-03-27T13:20:10.836Z,35.07
2019-03-27T13:22:38.690Z,34.92
2019-03-27T13:25:07.570Z,38.16
2019-03-27T13:27:33.808Z,38.90
2019-03-27T13:30:01.733Z,38.94
2019-03-27T13:32:28.052Z,37.89
2019-03-27T13:34:58.020Z,37.59
2019-03-27T13:37:27.106Z,38.94
2019-03-27T13:39:53.427Z,38.87
2019-03-27T13:42:19.684Z,38.11
2019-03-27T13:44:45.966Z,38.29
2019-03-27T13:47:12.242Z,38.20
2019-03-27T13:49:40.476Z,37.64
2019-03-27T13:52:06.683Z,38.12
2019-03-27T13:54:32.963Z,36.95
2019-03-27T13:56:59.247Z,35.04
2019-03-27T13:59:25.549Z,34.86
2019-03-27T14:01:51.805Z,35.25
2019-03-27T14:04:19.168Z,35.99
2019-03-27T14:06:45.467Z,35.67
2019-03-27T14:09:11.743Z,35.94
2019-03-27T14:11:38.025Z,35.98
2019-03-27T14:14:11.291Z,35.55
2019-03-27T14:16:32.452Z,35.69
2019-03-27T14:18:58.728Z,35.55
2019-03-27T14:21:24.856Z,35.01
2019-03-27T14:23:50.981Z,34.85
2019-03-27T14:26:17.403Z,34.82
2019-03-27T14:28:43.695Z,35.32
2019-03-27T14:31:09.960Z,34.67
2019-03-27T14:33:36.283Z,34.66
2019-03-27T14:36:02.511Z,34.08
2019-03-27T14:38:38.507Z,35.12
2019-03-27T14:41:04.825Z,34.48
2019-03-27T14:43:31.124Z,34.29
2019-03-27T14:45:58.216Z,34.54
2019-03-27T14:48:24.539Z,34.24
2019-03-27T14:50:54.605Z,34.84
2019-03-27T14:53:20.963Z,34.46
2019-03-27T14:55:47.261Z,34.48
2019-03-27T14:58:13.520Z,33.88
2019-03-27T15:00:39.742Z,34.21
2019-03-27T15:03:06.056Z,34.19
2019-03-27T15:05:32.345Z,34.28
2019-03-27T15:07:58.483Z,34.66
2019-03-27T15:10:24.680Z,33.79
2019-03-27T15:12:51.107Z,33.95
2019-03-27T15:15:18.708Z,33.67
2019-03-27T15:17:44.950Z,33.86
2019-03-27T15:20:11.377Z,34.06
2019-03-27T15:22:37.524Z,34.42
2019-03-27T15:25:05.883Z,34.14
2019-03-27T15:27:32.061Z,35.09
2019-03-27T15:30:02.430Z,34.72
2019-03-27T15:32:28.688Z,33.91
2019-03-27T15:34:55.086Z,33.33
2019-03-27T15:37:21.295Z,33.67
2019-03-27T15:39:47.589Z,33.48
2019-03-27T15:42:13.937Z,33.79
2019-03-27T15:44:40.236Z,33.30
2019-03-27T15:47:06.486Z,33.72
2019-03-27T15:49:32.728Z,33.36
2019-03-27T15:51:58.982Z,33.64
2019-03-27T15:54:25.218Z,33.97
2019-03-27T15:56:51.446Z,33.52
2019-03-27T15:59:17.794Z,33.56
2019-03-27T16:01:44.104Z,33.44
2019-03-27T16:04:10.342Z,33.58
2019-03-27T16:06:36.575Z,33.88
2019-03-27T16:09:07.650Z,33.64
2019-03-27T16:11:33.962Z,33.59
2019-03-27T16:14:02.579Z,33.37
2019-03-27T16:16:28.880Z,33.05
2019-03-27T16:18:55.124Z,33.42
2019-03-27T16:21:21.386Z,33.47
2019-03-27T16:23:47.652Z,33.45
2019-03-27T16:26:14.010Z,34.13
2019-03-27T16:28:40.268Z,34.36
2019-03-27T16:31:06.408Z,34.91
2019-03-27T16:33:32.677Z,34.85
2019-03-27T16:35:59.378Z,35.17
2019-03-27T16:38:25.605Z,35.17
2019-03-27T16:40:51.945Z,35.46
2019-03-27T16:45:44.612Z,35.63
2019-03-27T16:48:10.938Z,35.56
2019-03-27T16:50:37.241Z,36.00
2019-03-27T16:53:04.087Z,35.86
2019-03-27T16:55:30.724Z,36.11
2019-03-27T16:57:56.970Z,36.14
2019-03-27T17:00:23.245Z,36.46
2019-03-27T17:02:58.575Z,37.10
2019-03-27T17:05:24.739Z,38.11
2019-03-27T17:07:51.069Z,39.68
2019-03-27T17:10:17.380Z,40.11
2019-03-27T17:12:43.577Z,40.57
2019-03-27T17:15:12.452Z,41.34
2019-03-27T17:17:38.739Z,42.64
2019-03-27T17:20:07.761Z,43.27
2019-03-27T17:22:34.185Z,43.81
2019-03-27T17:25:03.288Z,44.28
2019-03-27T17:27:29.419Z,44.24
2019-03-27T17:29:55.650Z,44.46
2019-03-27T17:32:21.790Z,44.79
2019-03-27T17:34:47.936Z,44.52
2019-03-27T17:37:14.082Z,44.38
2019-03-27T17:39:40.260Z,44.47
2019-03-27T17:42:06.384Z,44.79
2019-03-27T17:44:32.535Z,45.03
2019-03-27T17:46:58.774Z,45.33
2019-03-27T17:49:28.164Z,45.18
2019-03-27T17:51:54.296Z,45.07
2019-03-27T17:54:21.092Z,45.15
2019-03-27T17:56:47.392Z,45.34
2019-03-27T17:59:13.813Z,46.03
2019-03-27T18:01:54.019Z,47.23
2019-03-27T18:04:26.534Z,47.76
2019-03-27T18:15:50.313Z,48.85
2019-03-27T18:18:19.523Z,49.72
2019-03-27T18:20:45.781Z,49.86
2019-03-27T18:23:12.071Z,49.80
2019-03-27T18:25:38.385Z,50.06
2019-03-27T18:28:04.625Z,50.41
2019-03-27T18:30:30.909Z,50.52
2019-03-27T18:32:57.259Z,50.63
2019-03-27T18:35:23.530Z,51.40
2019-03-27T18:37:49.780Z,51.89
2019-03-27T18:40:16.041Z,51.84
2019-03-27T18:42:42.210Z,52.00
2019-03-27T18:45:08.524Z,51.79
2019-03-27T18:47:34.728Z,51.83
2019-03-27T18:50:01.007Z,52.24
2019-03-27T18:52:27.314Z,52.36
2019-03-27T18:54:53.641Z,52.39
2019-03-27T18:57:19.897Z,53.11
2019-03-27T18:59:46.189Z,53.83
2019-03-27T19:02:12.328Z,54.17
2019-03-27T19:04:38.628Z,54.55
2019-03-27T19:07:04.938Z,54.35
2019-03-27T19:09:31.171Z,54.28
2019-03-27T19:11:57.344Z,55.43
2019-03-27T19:14:23.615Z,55.30
2019-03-27T19:16:49.996Z,55.48
2019-03-27T19:19:16.484Z,56.03
2019-03-27T19:21:42.694Z,56.03
2019-03-27T19:24:16.185Z,56.14
2019-03-27T19:26:37.122Z,55.83
2019-03-27T19:29:03.514Z,55.56
2019-03-27T19:31:29.860Z,55.50
2019-03-27T19:33:56.174Z,56.32
2019-03-27T19:36:22.398Z,57.18
2019-03-27T19:38:48.694Z,56.79
2019-03-27T19:41:18.303Z,57.11
2019-03-27T19:43:44.462Z,56.73
2019-03-27T19:46:10.730Z,56.76
2019-03-27T19:48:38.549Z,56.76
2019-03-27T19:51:04.955Z,56.96
2019-03-27T19:53:31.266Z,57.28
2019-03-27T19:56:00.561Z,57.56
2019-03-27T19:58:27.648Z,57.34
2019-03-27T20:00:53.759Z,57.84
2019-03-27T20:03:21.887Z,57.29
2019-03-27T20:05:50.777Z,57.51
2019-03-27T20:08:17.056Z,58.11
2019-03-27T20:10:43.069Z,57.93
2019-03-27T20:13:09.230Z,58.08
2019-03-27T20:15:35.516Z,58.10
2019-03-27T20:18:05.139Z,57.91
2019-03-27T20:20:32.813Z,57.88
2019-03-27T20:22:59.003Z,57.93
2019-03-27T20:25:25.276Z,57.84
2019-03-27T20:27:51.539Z,57.80
2019-03-27T20:30:21.488Z,57.94
2019-03-27T20:32:47.662Z,57.94
2019-03-27T20:35:13.781Z,58.73
2019-03-27T20:37:40.021Z,59.11
2019-03-27T20:40:06.544Z,58.94
2019-03-27T20:42:33.029Z,58.79
2019-03-27T20:45:06.147Z,59.03
2019-03-27T20:47:29.630Z,59.13
2019-03-27T20:49:55.766Z,59.17
2019-03-27T20:52:21.894Z,59.35
2019-03-27T20:54:54.764Z,59.69
2019-03-27T20:57:15.885Z,59.71
2019-03-27T20:59:41.930Z,59.53
2019-03-27T21:02:08.079Z,59.52
2019-03-27T21:04:34.213Z,59.77
2019-03-27T21:07:00.334Z,59.95
2019-03-27T21:09:26.471Z,60.00
2019-03-27T21:11:55.951Z,60.22
2019-03-27T21:14:20.622Z,60.05
2019-03-27T21:16:46.642Z,59.90
2019-03-27T21:19:12.778Z,59.82
2019-03-27T21:21:41.747Z,59.79
2019-03-27T21:24:06.860Z,59.89
2019-03-27T21:26:32.982Z,60.20
2019-03-27T21:28:59.152Z,60.45
2019-03-27T21:31:25.271Z,60.44
2019-03-27T21:33:51.404Z,60.49
2019-03-27T21:36:17.545Z,60.35
2019-03-27T21:38:43.774Z,60.23
2019-03-27T21:41:09.911Z,60.38
2019-03-27T21:43:35.922Z,60.44
2019-03-27T21:46:02.074Z,60.49
2019-03-27T21:48:28.215Z,60.83
2019-03-27T21:50:54.276Z,60.93
2019-03-27T21:53:20.400Z,60.95
2019-03-27T21:55:46.851Z,60.99
2019-03-27T21:58:12.982Z,61.03
2019-03-27T22:00:39.353Z,61.06
2019-03-27T22:03:06.178Z,61.22
2019-03-27T22:05:32.539Z,61.24
2019-03-27T22:07:58.653Z,61.17
2019-03-27T22:10:24.812Z,61.39
2019-03-27T22:12:50.751Z,61.52
2019-03-27T22:15:16.974Z,61.43
2019-03-27T22:17:43.092Z,61.56
2019-03-27T22:20:09.275Z,61.60
2019-03-27T22:22:35.404Z,61.71
2019-03-27T22:25:01.522Z,61.81
2019-03-27T22:27:33.240Z,62.05
2019-03-27T22:29:59.366Z,61.99
2019-03-27T22:32:25.525Z,61.80
2019-03-27T22:34:51.480Z,61.85
2019-03-27T22:37:17.602Z,61.96
2019-03-27T22:39:43.630Z,62.10
2019-03-27T22:42:09.654Z,62.24
2019-03-27T22:44:35.776Z,62.46
2019-03-27T22:47:01.898Z,62.33
2019-03-27T22:49:28.052Z,62.22
2019-03-27T22:51:54.217Z,62.16
2019-03-27T22:54:20.248Z,62.11
2019-03-27T22:56:49.017Z,62.07
2019-03-27T22:59:15.078Z,62.08
2019-03-27T23:01:43.597Z,62.26
2019-03-27T23:04:09.857Z,62.57
2019-03-27T23:06:35.985Z,62.79
2019-03-27T23:09:02.337Z,63.01
2019-03-27T23:11:28.480Z,62.98
2019-03-27T23:13:54.623Z,63.01
2019-03-27T23:16:20.728Z,63.06
2019-03-27T23:18:46.746Z,63.15
2019-03-27T23:21:12.857Z,63.26
2019-03-27T23:23:38.987Z,63.35
2019-03-27T23:26:05.125Z,63.25
2019-03-27T23:28:31.155Z,63.39
2019-03-27T23:30:57.272Z,63.59
2019-03-27T23:33:23.394Z,63.44
2019-03-27T23:35:49.911Z,63.56
2019-03-27T23:38:16.199Z,63.57
2019-03-27T23:40:42.356Z,63.68
2019-03-27T23:43:08.542Z,63.75
2019-03-27T23:45:34.662Z,63.85
2019-03-27T23:48:00.783Z,63.86
2019-03-27T23:50:26.945Z,63.86
2019-03-27T23:52:53.068Z,63.92
2019-03-27T23:55:19.103Z,63.94
2019-03-27T23:57:45.257Z,64.15
